Time;durP1;ratioP1;P1;durP2;ratioP2;P2;SDS_P1;SDS_P2;PMS_P1;PMS_P2;Temp;Humidity;BMP_temperature;BMP_pressure;BME280_temperature;BME280_humidity;BME280_pressure;Samples;Min_cycle;Max_cycle;Signal;HPM_P1;HPM_P2
2022/11/16 00:01:52;;;;;;;19.63;11.33;;;;;;;10.04;100.00;99737.88;5029681;28;20061;-86
2022/11/16 00:04:17;;;;;;;21.73;12.27;;;;;;;10.05;100.00;99738.66;5030477;28;20026;-87
2022/11/16 00:06:44;;;;;;;20.47;12.10;;;;;;;9.98;100.00;99725.59;5030521;28;20460;-86
2022/11/16 00:09:22;;;;;;;19.30;12.32;;;;;;;10.05;100.00;99752.03;5028344;28;20025;-86
2022/11/16 00:11:56;;;;;;;26.30;12.45;;;;;;;10.07;100.00;99750.66;5029100;28;20036;-86
2022/11/16 00:14:24;;;;;;;17.83;11.45;;;;;;;10.07;100.00;99742.63;5030072;28;20071;-86
2022/11/16 00:16:50;;;;;;;22.05;12.43;;;;;;;10.09;100.00;99743.16;5029338;28;20028;-86
2022/11/16 00:19:16;;;;;;;26.83;12.30;;;;;;;10.02;100.00;99734.66;5029237;28;20061;-85
2022/11/16 00:21:41;;;;;;;21.30;12.33;;;;;;;10.04;100.00;99750.44;5030107;28;20060;-86
2022/11/16 00:24:09;;;;;;;20.35;12.32;;;;;;;10.03;100.00;99744.28;5029494;28;20104;-86
2022/11/16 00:26:34;;;;;;;19.27;11.97;;;;;;;10.07;100.00;99744.53;5030580;28;20083;-86
2022/11/16 00:28:59;;;;;;;18.38;12.68;;;;;;;10.08;100.00;99749.59;5029004;28;20037;-87
2022/11/16 00:31:25;;;;;;;25.00;13.53;;;;;;;10.07;100.00;99736.50;5029296;28;20082;-87
2022/11/16 00:33:50;;;;;;;23.53;13.80;;;;;;;10.09;100.00;99737.81;5030087;28;20535;-87
2022/11/16 00:36:16;;;;;;;22.05;12.38;;;;;;;10.07;100.00;99747.97;5030227;28;20029;-87
2022/11/16 00:38:42;;;;;;;18.97;11.77;;;;;;;10.05;100.00;99754.72;5030589;28;20401;-86
2022/11/16 00:41:08;;;;;;;20.25;12.18;;;;;;;10.07;100.00;99752.56;5028071;28;20389;-86
2022/11/16 00:43:34;;;;;;;20.17;12.60;;;;;;;10.07;100.00;99756.00;5010376;28;20056;-86
2022/11/16 00:46:00;;;;;;;27.40;14.47;;;;;;;10.01;100.00;99730.38;5030510;28;20673;-87
2022/11/16 00:48:26;;;;;;;23.55;12.27;;;;;;;10.07;100.00;99723.91;5029595;28;20021;-86
2022/11/16 00:50:51;;;;;;;23.17;13.17;;;;;;;10.03;100.00;99717.53;5029919;28;20056;-87
2022/11/16 00:53:18;;;;;;;24.25;13.00;;;;;;;10.08;100.00;99714.00;5029501;28;20038;-86
2022/11/16 00:55:45;;;;;;;25.15;12.45;;;;;;;10.06;100.00;99706.22;5030164;28;20120;-87
2022/11/16 00:58:12;;;;;;;23.15;14.13;;;;;;;10.07;100.00;99702.47;5028645;28;20056;-87
2022/11/16 01:00:38;;;;;;;25.13;13.87;;;;;;;10.07;100.00;99707.84;5028845;28;20163;-86
2022/11/16 01:03:03;;;;;;;24.20;12.77;;;;;;;10.04;100.00;99719.13;5030305;28;20853;-86
2022/11/16 01:05:29;;;;;;;22.40;12.45;;;;;;;10.06;100.00;99745.59;5031741;28;20029;-87
2022/11/16 01:07:56;;;;;;;24.33;12.30;;;;;;;10.03;100.00;99730.91;5033884;28;20083;-87
2022/11/16 01:10:25;;;;;;;24.50;12.75;;;;;;;10.04;100.00;99711.09;5032525;28;20030;-86
2022/11/16 01:12:51;;;;;;;23.17;12.27;;;;;;;10.06;100.00;99721.50;5031910;28;20076;-86
2022/11/16 01:15:19;;;;;;;28.77;14.55;;;;;;;10.06;100.00;99727.66;5032671;28;20025;-86
2022/11/16 01:17:44;;;;;;;23.88;14.43;;;;;;;10.05;100.00;99731.41;5014155;28;20253;-86
2022/11/16 01:20:14;;;;;;;24.90;14.53;;;;;;;9.92;100.00;99683.88;5013482;28;20123;-86
2022/11/16 01:22:40;;;;;;;23.70;13.88;;;;;;;10.05;100.00;99704.63;5028866;28;20484;-86
2022/11/16 01:25:07;;;;;;;26.63;14.50;;;;;;;10.02;100.00;99688.34;5034206;28;20037;-87
2022/11/16 01:27:32;;;;;;;27.87;13.30;;;;;;;10.03;100.00;99704.16;5033056;28;20025;-86
2022/11/16 01:29:58;;;;;;;25.83;13.23;;;;;;;10.02;100.00;99707.91;5032248;28;20809;-86
2022/11/16 01:32:25;;;;;;;29.73;14.67;;;;;;;10.06;100.00;99708.13;5032693;28;20025;-86
2022/11/16 01:34:51;;;;;;;24.75;13.27;;;;;;;10.01;100.00;99698.28;5033284;28;20036;-86
2022/11/16 01:37:17;;;;;;;26.17;13.80;;;;;;;10.03;100.00;99693.44;5033280;28;20029;-86
2022/11/16 01:39:42;;;;;;;26.10;13.05;;;;;;;10.09;100.00;99694.97;5031544;28;20028;-86
2022/11/16 01:42:18;;;;;;;23.73;12.90;;;;;;;10.03;100.00;99690.75;5033031;28;20425;-86
2022/11/16 01:44:44;;;;;;;25.27;13.73;;;;;;;10.07;100.00;99694.44;5033638;28;20030;-87
2022/11/16 01:47:13;;;;;;;31.70;16.33;;;;;;;10.07;100.00;99688.31;5031420;28;20536;-86
2022/11/16 01:49:47;;;;;;;27.83;15.02;;;;;;;10.09;100.00;99692.28;5031210;28;20034;-86
2022/11/16 01:52:17;;;;;;;29.40;14.52;;;;;;;10.02;100.00;99683.00;5033023;28;20045;-86
2022/11/16 01:54:45;;;;;;;26.83;13.73;;;;;;;10.07;100.00;99686.41;5031663;28;20496;-86
2022/11/16 01:57:17;;;;;;;31.50;15.43;;;;;;;10.11;100.00;99697.38;5032710;28;20017;-86
2022/11/16 01:59:44;;;;;;;28.17;14.00;;;;;;;10.04;100.00;99689.69;5032654;28;20033;-86
2022/11/16 02:02:10;;;;;;;26.70;13.53;;;;;;;10.13;100.00;99696.00;5032706;28;20772;-86
2022/11/16 02:04:35;;;;;;;25.90;13.55;;;;;;;10.12;100.00;99683.72;5029029;28;20043;-87
2022/11/16 02:07:24;;;;;;;33.30;15.30;;;;;;;10.14;100.00;99686.91;5032040;28;20060;-85
2022/11/16 02:10:09;;;;;;;27.88;13.68;;;;;;;10.09;100.00;99683.47;5037389;28;20061;-85
2022/11/16 02:13:12;;;;;;;28.77;14.27;;;;;;;10.14;100.00;99684.22;5039455;28;20025;-86
2022/11/16 02:15:45;;;;;;;26.03;13.60;;;;;;;10.14;100.00;99678.88;5049134;28;20056;-84
2022/11/16 02:18:17;;;;;;;23.70;13.10;;;;;;;10.15;100.00;99680.47;5535541;22;20269;-85
2022/11/16 02:21:04;;;;;;;24.05;13.25;;;;;;;10.14;100.00;99678.06;5054219;28;20056;-85
2022/11/16 02:24:05;;;;;;;24.38;13.07;;;;;;;10.13;100.00;99679.16;5052802;28;20044;-85
2022/11/16 02:27:07;;;;;;;25.35;13.00;;;;;;;10.13;100.00;99671.91;5053266;28;20126;-85
2022/11/16 02:29:38;;;;;;;26.13;13.77;;;;;;;10.15;100.00;99671.63;5030753;28;20033;-85
2022/11/16 02:32:13;;;;;;;24.23;13.90;;;;;;;10.16;100.00;99670.53;5032836;28;20635;-85
2022/11/16 02:34:43;;;;;;;24.30;13.18;;;;;;;10.15;100.00;99666.28;5030887;28;20037;-85
2022/11/16 02:37:12;;;;;;;25.90;13.77;;;;;;;10.14;100.00;99665.50;5032988;28;20104;-86
2022/11/16 02:39:39;;;;;;;37.65;13.32;;;;;;;10.08;100.00;99660.47;5032343;28;20052;-86
2022/11/16 02:42:11;;;;;;;34.70;12.50;;;;;;;10.22;100.00;99674.78;5050049;28;20025;-85
2022/11/16 02:44:41;;;;;;;24.77;13.13;;;;;;;10.25;100.00;99676.91;5046981;28;20304;-85
2022/11/16 02:47:13;;;;;;;26.50;13.05;;;;;;;10.16;100.00;99662.50;5031891;28;20026;-85
2022/11/16 02:49:44;;;;;;;26.90;13.25;;;;;;;10.26;100.00;99677.69;5030284;28;20013;-85
2022/11/16 02:52:11;;;;;;;28.70;12.98;;;;;;;10.30;100.00;99700.13;5032541;28;20412;-85
2022/11/16 02:54:36;;;;;;;26.98;12.95;;;;;;;10.23;100.00;99679.06;5031428;28;20029;-84
2022/11/16 02:57:01;;;;;;;22.07;11.40;;;;;;;10.28;100.00;99694.25;5032095;28;20032;-85
2022/11/16 02:59:32;;;;;;;17.57;9.67;;;;;;;10.15;100.00;99685.81;5031748;28;20369;-85
2022/11/16 03:02:19;;;;;;;23.75;10.75;;;;;;;10.22;100.00;99695.41;5041872;28;20203;-84
2022/11/16 03:04:49;;;;;;;16.55;9.82;;;;;;;10.21;100.00;99688.47;5052205;28;20041;-85
2022/11/16 03:07:19;;;;;;;25.27;9.32;;;;;;;10.18;100.00;99697.06;5032730;28;20518;-85
2022/11/16 03:09:47;;;;;;;15.55;8.75;;;;;;;10.10;100.00;99687.75;5029703;28;20036;-85
2022/11/16 03:12:17;;;;;;;14.87;8.33;;;;;;;10.06;100.00;99686.72;5025898;28;20036;-85
2022/11/16 03:14:53;;;;;;;14.80;7.78;;;;;;;10.03;100.00;99677.38;5051730;28;20027;-84
2022/11/16 03:20:16;;;;;;;10.88;7.47;;;;;;;9.97;100.00;99683.84;2927929;22;20052;-85
2022/11/16 03:22:43;;;;;;;13.35;7.13;;;;;;;9.94;100.00;99701.28;5048978;28;20025;-84
2022/11/16 03:25:12;;;;;;;12.35;6.85;;;;;;;9.88;100.00;99702.41;5051043;28;20104;-84
2022/11/16 03:27:45;;;;;;;11.63;6.63;;;;;;;9.80;100.00;99692.28;5050212;28;20052;-85
2022/11/16 03:30:15;;;;;;;11.73;6.40;;;;;;;9.76;100.00;99696.63;5048669;28;20124;-84
2022/11/16 03:32:48;;;;;;;9.63;5.88;;;;;;;9.66;100.00;99690.25;5048410;28;20028;-86
2022/11/16 03:35:17;;;;;;;11.53;5.87;;;;;;;9.69;100.00;99703.06;5049322;28;20024;-86
2022/11/16 03:37:45;;;;;;;8.23;5.77;;;;;;;9.65;100.00;99703.91;5051363;28;20801;-86
2022/11/16 03:40:12;;;;;;;8.52;6.00;;;;;;;9.63;100.00;99708.75;5048417;28;20482;-87
2022/11/16 03:42:39;;;;;;;10.27;6.13;;;;;;;9.60;100.00;99711.97;5047661;28;20029;-86
2022/11/16 03:45:06;;;;;;;14.07;6.80;;;;;;;9.57;100.00;99710.66;5049589;28;20025;-84
2022/11/16 03:47:31;;;;;;;13.32;6.10;;;;;;;9.53;100.00;99715.75;5050245;28;20108;-83
2022/11/16 03:49:56;;;;;;;11.27;5.93;;;;;;;9.49;100.00;99724.59;5049056;28;20445;-84
2022/11/16 03:52:22;;;;;;;9.43;5.10;;;;;;;9.33;100.00;99708.66;5050679;28;20017;-83
2022/11/16 03:54:47;;;;;;;9.23;4.97;;;;;;;9.40;100.00;99719.84;5048623;28;20664;-84
2022/11/16 03:57:17;;;;;;;8.07;4.80;;;;;;;9.32;100.00;99720.44;5049966;28;20492;-83
2022/11/16 03:59:42;;;;;;;7.10;4.88;;;;;;;9.37;100.00;99728.44;5043079;28;20028;-83
2022/11/16 04:02:08;;;;;;;8.30;5.17;;;;;;;9.39;100.00;99744.19;5050447;28;20021;-83
2022/11/16 04:29:12;;;;;;;6.68;3.00;;;;;;;9.05;100.00;99724.28;5047903;28;20420;-84
2022/11/16 04:39:49;;;;;;;9.15;2.95;;;;;;;8.90;100.00;99722.50;5048475;28;20048;-83
2022/11/16 04:42:18;;;;;;;6.67;2.97;;;;;;;8.90;100.00;99745.75;5049858;28;20021;-84
2022/11/16 04:47:28;;;;;;;7.65;3.10;;;;;;;8.78;100.00;99746.03;5050087;28;20612;-84
2022/11/16 04:49:54;;;;;;;8.10;3.47;;;;;;;8.69;100.00;99745.78;5048361;28;20029;-84
2022/11/16 04:52:19;;;;;;;8.53;3.47;;;;;;;8.75;100.00;99766.09;5049876;28;20021;-84
2022/11/16 04:54:44;;;;;;;8.17;3.60;;;;;;;8.70;100.00;99762.63;5048974;28;20079;-84
2022/11/16 04:57:10;;;;;;;9.70;3.57;;;;;;;8.73;100.00;99778.13;5048884;28;20036;-84
2022/11/16 04:59:35;;;;;;;12.95;3.72;;;;;;;8.68;100.00;99786.13;5050025;28;20476;-83
2022/11/16 05:02:09;;;;;;;10.00;2.97;;;;;;;8.65;100.00;99774.13;5048663;28;20520;-84
2022/11/16 05:04:36;;;;;;;7.82;4.10;;;;;;;8.69;100.00;99783.19;5051227;28;20021;-84
2022/11/16 05:07:01;;;;;;;7.22;3.92;;;;;;;8.70;100.00;99782.13;5053999;28;20033;-84
2022/11/16 05:09:26;;;;;;;9.43;3.90;;;;;;;8.70;100.00;99776.00;5050971;28;20546;-84
2022/11/16 05:11:52;;;;;;;10.47;4.07;;;;;;;8.63;100.00;99760.25;5048932;28;20526;-84
2022/11/16 05:14:17;;;;;;;11.47;3.90;;;;;;;8.61;100.00;99768.53;5030173;28;20033;-84
2022/11/16 05:16:43;;;;;;;13.88;3.70;;;;;;;8.60;100.00;99785.59;5045331;28;20039;-84
2022/11/16 05:21:52;;;;;;;8.77;3.58;;;;;;;8.45;100.00;99789.09;5049123;28;20056;-83
2022/11/16 05:24:32;;;;;;;14.37;3.60;;;;;;;8.33;100.00;99772.53;5047987;28;20025;-85
2022/11/16 05:26:58;;;;;;;7.75;3.53;;;;;;;8.32;100.00;99784.28;5048971;28;20049;-84
2022/11/16 05:29:24;;;;;;;5.73;3.20;;;;;;;8.23;100.00;99781.34;5049041;28;20492;-85
2022/11/16 05:31:49;;;;;;;10.90;3.85;;;;;;;8.16;100.00;99775.50;5049629;28;20090;-85
2022/11/16 05:34:15;;;;;;;6.20;3.50;;;;;;;8.10;100.00;99779.22;5047896;28;20044;-84
2022/11/16 05:36:41;;;;;;;14.50;3.80;;;;;;;7.96;100.00;99771.75;5049742;28;20029;-84
2022/11/16 05:39:06;;;;;;;7.70;3.67;;;;;;;7.92;100.00;99776.00;5049937;28;20383;-84
2022/11/16 05:41:32;;;;;;;8.05;3.00;;;;;;;7.79;100.00;99769.31;5048262;28;20013;-84
2022/11/16 05:43:57;;;;;;;9.83;3.77;;;;;;;7.76;100.00;99767.19;5046969;28;20384;-86
2022/11/16 05:46:23;;;;;;;14.63;3.20;;;;;;;7.69;100.00;99772.78;5045846;28;20055;-84
2022/11/16 05:48:49;;;;;;;10.98;3.83;;;;;;;7.58;100.00;99763.16;5046545;28;20082;-88
2022/11/16 05:51:15;;;;;;;8.70;4.03;;;;;;;7.55;100.00;99771.69;5044333;28;20442;-86
2022/11/16 05:53:40;;;;;;;11.57;4.40;;;;;;;7.49;100.00;99775.38;5046741;28;20890;-85
2022/11/16 06:01:16;;;;;;;6.20;3.67;;;;;;;7.35;100.00;99781.22;5595827;22;20109;-86
2022/11/16 06:03:41;;;;;;;12.83;4.27;;;;;;;7.28;100.00;99788.69;5049122;28;20045;-86
2022/11/16 06:06:07;;;;;;;13.40;4.05;;;;;;;7.19;100.00;99780.38;5048121;28;20047;-86
2022/11/16 06:08:32;;;;;;;11.03;4.27;;;;;;;7.23;100.00;99791.31;5053051;28;20076;-86
2022/11/16 06:11:05;;;;;;;7.23;4.00;;;;;;;7.18;100.00;99796.63;5050615;28;20142;-85
2022/11/16 06:13:32;;;;;;;14.70;4.70;;;;;;;7.13;100.00;99798.19;5051731;28;20341;-85
2022/11/16 06:15:58;;;;;;;9.10;4.32;;;;;;;7.05;100.00;99798.69;5053008;28;20025;-84
2022/11/16 06:18:24;;;;;;;11.75;4.55;;;;;;;7.02;100.00;99803.75;5066278;28;20025;-84
2022/11/16 06:20:50;;;;;;;8.30;4.10;;;;;;;6.92;100.00;99789.31;5048392;28;20044;-84
2022/11/16 06:23:15;;;;;;;12.65;4.32;;;;;;;7.00;100.00;99812.00;5046593;28;20029;-84
2022/11/16 06:25:40;;;;;;;12.37;3.90;;;;;;;6.94;100.00;99797.84;5048589;28;20021;-84
2022/11/16 06:28:06;;;;;;;9.30;3.97;;;;;;;6.98;100.00;99803.44;5052230;28;20033;-83
2022/11/16 06:30:32;;;;;;;12.70;4.60;;;;;;;6.97;100.00;99812.50;5052384;28;20087;-84
2022/11/16 06:32:57;;;;;;;19.90;3.93;;;;;;;6.88;100.00;99822.84;5051192;28;20095;-85
2022/11/16 06:35:22;;;;;;;16.13;4.17;;;;;;;6.91;100.00;99829.53;5052158;28;20033;-84
2022/11/16 06:37:48;;;;;;;16.73;4.07;;;;;;;6.90;100.00;99827.94;5050893;28;20033;-85
2022/11/16 06:40:13;;;;;;;12.82;4.53;;;;;;;6.83;100.00;99830.81;5051249;28;20518;-84
2022/11/16 06:42:38;;;;;;;9.87;4.07;;;;;;;6.70;100.00;99817.94;5052168;28;20021;-84
2022/11/16 06:45:04;;;;;;;14.37;4.23;;;;;;;6.76;100.00;99831.00;5052354;28;20029;-84
2022/11/16 06:52:49;;;;;;;12.95;4.50;;;;;;;6.58;100.00;99816.28;6130791;22;21386;-82
2022/11/16 06:55:15;;;;;;;10.00;4.27;;;;;;;6.50;100.00;99822.06;5037591;28;20021;-82
2022/11/16 06:57:41;;;;;;;15.10;4.70;;;;;;;6.59;100.00;99841.00;5070835;28;20306;-82
2022/11/16 07:00:09;;;;;;;13.00;4.82;;;;;;;6.56;100.00;99846.88;5049606;28;20028;-82
2022/11/16 07:02:36;;;;;;;17.25;5.20;;;;;;;6.53;100.00;99845.50;5051103;28;20074;-82
2022/11/16 07:05:02;;;;;;;11.32;5.10;;;;;;;6.47;100.00;99836.69;5047396;28;20039;-82
2022/11/16 07:07:27;;;;;;;16.40;5.57;;;;;;;6.48;100.00;99845.47;5030391;28;20599;-83
2022/11/16 07:09:53;;;;;;;16.63;5.55;;;;;;;6.47;100.00;99842.00;5047495;28;20037;-83
2022/11/16 07:12:18;;;;;;;13.67;5.97;;;;;;;6.55;100.00;99843.38;5051086;28;20075;-83
2022/11/16 07:14:44;;;;;;;19.77;5.80;;;;;;;6.52;100.00;99838.56;5056093;28;20029;-81
2022/11/16 07:17:10;;;;;;;17.10;5.70;;;;;;;6.53;100.00;99842.06;5043379;28;20024;-81
2022/11/16 07:19:35;;;;;;;26.87;6.50;;;;;;;6.61;100.00;99852.22;5063187;28;20052;-82
2022/11/16 07:22:01;;;;;;;24.33;7.72;;;;;;;6.64;100.00;99855.19;5041862;28;20033;-81
2022/11/16 07:24:27;;;;;;;25.80;7.70;;;;;;;6.65;100.00;99859.47;5061179;28;20032;-81
2022/11/16 07:26:52;;;;;;;29.90;8.52;;;;;;;6.67;100.00;99851.19;5053882;28;20036;-82
2022/11/16 07:29:18;;;;;;;24.80;8.27;;;;;;;6.73;100.00;99863.50;5065922;28;20040;-81
2022/11/16 07:31:43;;;;;;;25.60;8.37;;;;;;;6.71;100.00;99867.47;5065931;28;20475;-82
2022/11/16 07:34:09;;;;;;;34.33;9.85;;;;;;;6.74;100.00;99867.78;5061803;28;20403;-82
2022/11/16 07:36:36;;;;;;;37.70;8.90;;;;;;;6.73;100.00;99874.16;5067251;28;20032;-81
2022/11/16 07:39:02;;;;;;;32.13;9.02;;;;;;;6.72;100.00;99885.03;5062743;28;20087;-82
2022/11/16 07:41:27;;;;;;;33.33;8.50;;;;;;;6.78;100.00;99884.81;5042770;28;20028;-81
2022/11/16 07:43:52;;;;;;;29.63;8.83;;;;;;;6.80;100.00;99877.38;5058521;28;20024;-82
2022/11/16 07:46:22;;;;;;;25.50;8.30;;;;;;;6.86;100.00;99888.06;5067276;28;20017;-82
2022/11/16 07:48:48;;;;;;;30.30;7.57;;;;;;;6.87;100.00;99889.69;5065771;28;20028;-82
2022/11/16 07:51:15;;;;;;;37.63;8.13;;;;;;;6.89;100.00;99888.34;5058840;28;20361;-82
2022/11/16 07:53:42;;;;;;;44.33;16.45;;;;;;;6.90;100.00;99883.84;5041499;28;20425;-83
2022/11/16 07:56:09;;;;;;;27.48;7.38;;;;;;;6.90;100.00;99889.97;5063103;28;20060;-84
2022/11/16 07:58:36;;;;;;;27.20;6.78;;;;;;;6.92;100.00;99887.06;5060998;28;20102;-83
2022/11/16 08:01:13;;;;;;;22.63;6.50;;;;;;;6.98;100.00;99891.34;5065254;28;20078;-83
2022/11/16 08:03:40;;;;;;;29.40;6.10;;;;;;;7.00;100.00;99899.88;5060528;28;20017;-83
2022/11/16 08:06:27;;;;;;;24.03;6.27;;;;;;;7.06;100.00;99898.06;5047215;28;20033;-82
2022/11/16 08:08:54;;;;;;;29.80;6.50;;;;;;;7.03;100.00;99899.38;5055430;28;20294;-82
2022/11/16 08:11:20;;;;;;;23.05;5.32;;;;;;;7.06;100.00;99909.53;5066889;28;20032;-82
2022/11/16 08:13:45;;;;;;;30.90;6.95;;;;;;;7.06;100.00;99895.38;5065666;28;20029;-82
2022/11/16 08:16:13;;;;;;;25.53;5.37;;;;;;;7.07;100.00;99899.66;5049096;28;20553;-81
2022/11/16 08:18:40;;;;;;;20.85;4.70;;;;;;;7.11;100.00;99898.91;5057038;28;20025;-83
2022/11/16 08:21:07;;;;;;;22.58;5.25;;;;;;;7.13;100.00;99904.75;5050816;28;20032;-83
2022/11/16 08:23:32;;;;;;;27.00;5.60;;;;;;;7.13;100.00;99903.97;5066833;28;20115;-83
2022/11/16 08:26:06;;;;;;;29.67;5.60;;;;;;;7.17;100.00;99904.25;5064841;28;20044;-83
2022/11/16 08:28:31;;;;;;;14.90;4.63;;;;;;;7.17;100.00;99904.25;5051724;28;20511;-83
2022/11/16 08:30:57;;;;;;;25.43;5.63;;;;;;;7.21;100.00;99908.00;5065045;28;20024;-83
2022/11/16 08:33:23;;;;;;;28.17;5.28;;;;;;;7.22;100.00;99901.63;5065201;28;20025;-84
2022/11/16 08:35:53;;;;;;;26.95;5.43;;;;;;;7.13;100.00;99890.66;5069861;28;20028;-83
2022/11/16 08:38:18;;;;;;;24.95;5.13;;;;;;;7.24;100.00;99899.50;5070011;28;20032;-83
2022/11/16 08:40:44;;;;;;;24.35;5.18;;;;;;;7.23;100.00;99900.56;5068605;28;20099;-85
2022/11/16 08:43:10;;;;;;;25.47;4.30;;;;;;;7.30;100.00;99905.66;5054296;28;20114;-84
2022/11/16 08:45:36;;;;;;;20.52;4.70;;;;;;;7.33;100.00;99916.59;5052564;28;20463;-85
2022/11/16 08:48:03;;;;;;;21.95;3.70;;;;;;;7.27;100.00;99905.13;5070187;28;20043;-85
2022/11/16 08:50:28;;;;;;;25.90;4.63;;;;;;;7.30;100.00;99914.47;5060140;28;20056;-85
2022/11/16 08:52:55;;;;;;;20.93;4.10;;;;;;;7.32;100.00;99920.31;5045758;28;20291;-85
2022/11/16 08:55:21;;;;;;;20.23;3.50;;;;;;;7.35;100.00;99921.69;5087876;22;20033;-85
2022/11/16 08:57:46;;;;;;;16.77;3.50;;;;;;;7.35;100.00;99921.69;5047177;28;20321;-86
2022/11/16 09:00:12;;;;;;;15.20;2.97;;;;;;;7.33;100.00;99921.94;5066879;28;20037;-85
2022/11/16 09:02:38;;;;;;;14.95;3.80;;;;;;;7.33;100.00;99911.28;5070020;28;20403;-85
2022/11/16 09:05:04;;;;;;;20.97;3.00;;;;;;;7.34;100.00;99910.22;5050880;28;20029;-85
2022/11/16 09:10:24;;;;;;;;;;;;;;;;;;;;;
2022/11/16 09:13:03;;;;;;;;;;;;;;;;;;;;;
2022/11/16 09:15:28;;;;;;;21.40;3.30;;;;;;;7.37;100.00;99908.91;5077159;28;20097;-83
2022/11/16 09:17:54;;;;;;;21.03;3.07;;;;;;;7.51;100.00;99919.88;5068934;28;20682;-83
2022/11/16 09:20:20;;;;;;;17.03;3.03;;;;;;;7.57;100.00;99927.69;5057149;28;20024;-82
2022/11/16 09:22:45;;;;;;;22.65;3.20;;;;;;;7.58;100.00;99933.78;5066962;28;20029;-84
2022/11/16 09:25:11;;;;;;;21.33;3.23;;;;;;;7.61;100.00;99935.94;5069612;28;20365;-84
2022/11/16 09:27:37;;;;;;;10.27;3.20;;;;;;;7.59;100.00;99924.75;5037712;28;20090;-83
2022/11/16 09:30:04;;;;;;;25.03;3.20;;;;;;;7.66;100.00;99935.97;5072130;28;20028;-84
2022/11/16 09:32:29;;;;;;;18.58;3.50;;;;;;;7.69;100.00;99937.31;5072253;28;20337;-83
2022/11/16 09:34:58;;;;;;;14.23;2.77;;;;;;;7.68;100.00;99915.16;5072400;28;20075;-83
2022/11/16 09:37:24;;;;;;;14.82;2.58;;;;;;;7.66;100.00;99917.31;5072247;28;20114;-83
2022/11/16 09:39:49;;;;;;;18.10;3.47;;;;;;;7.79;100.00;99939.22;5091563;28;20116;-83
2022/11/16 09:42:27;;;;;;;16.42;3.00;;;;;;;7.83;100.00;99942.97;5093138;28;20115;-83
2022/11/16 09:44:58;;;;;;;14.32;3.20;;;;;;;7.87;100.00;99950.19;5076676;28;20040;-83
2022/11/16 09:47:50;;;;;;;17.93;2.70;;;;;;;7.80;100.00;99927.50;5070371;28;20086;-84
2022/11/16 09:50:26;;;;;;;16.57;2.33;;;;;;;7.87;100.00;99928.84;5073054;28;20957;-84
2022/11/16 09:52:54;;;;;;;19.25;3.00;;;;;;;7.86;100.00;99932.56;5086597;28;20092;-84
2022/11/16 09:55:28;;;;;;;18.00;2.45;;;;;;;7.87;100.00;99934.19;5072529;28;20024;-83
2022/11/16 09:57:58;;;;;;;12.05;2.40;;;;;;;7.90;100.00;99934.72;5073238;28;20039;-84
2022/11/16 10:00:28;;;;;;;14.38;2.30;;;;;;;7.94;100.00;99933.94;5071414;28;20021;-84
2022/11/16 10:03:01;;;;;;;17.05;2.65;;;;;;;8.00;100.00;99948.91;5071137;28;20044;-83
2022/11/16 10:05:50;;;;;;;9.15;2.03;;;;;;;8.00;100.00;99942.75;5072593;28;20492;-84
2022/11/16 10:08:23;;;;;;;14.97;2.43;;;;;;;7.98;100.00;99943.03;5072651;28;20027;-84
2022/11/16 10:11:01;;;;;;;18.13;2.77;;;;;;;8.07;100.00;99948.66;5068580;28;20294;-85
2022/11/16 10:13:49;;;;;;;16.88;2.35;;;;;;;8.09;100.00;99948.38;5078754;28;20025;-84
2022/11/16 10:16:38;;;;;;;12.23;2.15;;;;;;;8.12;100.00;99950.53;5053079;28;20562;-85
2022/11/16 10:19:19;;;;;;;12.52;2.50;;;;;;;8.14;100.00;99938.53;5074327;28;20040;-84
2022/11/16 10:21:52;;;;;;;10.68;2.00;;;;;;;8.15;100.00;99944.69;5071226;28;20377;-84
2022/11/16 10:24:36;;;;;;;14.80;1.92;;;;;;;8.18;100.00;99944.94;5070880;28;20024;-83
2022/11/16 10:27:10;;;;;;;12.73;1.92;;;;;;;8.27;100.00;99942.56;5073904;28;20032;-85
2022/11/16 10:30:08;;;;;;;9.32;1.80;;;;;;;8.28;100.00;99940.72;5072754;28;20035;-84
2022/11/16 10:32:42;;;;;;;15.85;2.10;;;;;;;8.31;100.00;99935.63;5050607;28;20498;-86
2022/11/16 10:35:16;;;;;;;14.47;1.50;;;;;;;8.44;100.00;99947.69;5071523;28;20032;-83
2022/11/16 10:37:47;;;;;;;17.70;2.17;;;;;;;8.48;100.00;99931.94;5054099;28;20283;-83
2022/11/16 10:40:29;;;;;;;13.40;1.90;;;;;;;8.63;100.00;99939.19;5071799;28;20101;-84
2022/11/16 10:43:16;;;;;;;10.77;1.90;;;;;;;8.73;100.00;99933.81;5064912;28;20376;-83
2022/11/16 10:46:13;;;;;;;12.07;1.60;;;;;;;8.81;100.00;99939.72;5106468;28;20494;-84
2022/11/16 10:49:10;;;;;;;10.27;1.98;;;;;;;8.87;100.00;99938.63;5083718;28;20020;-83
2022/11/16 10:51:37;;;;;;;5.47;1.20;;;;;;;8.96;100.00;99939.72;5082684;28;20032;-85
2022/11/16 11:13:19;;;;;;;14.73;1.92;;;;;;;9.79;100.00;99929.59;5263325;22;20059;-91
2022/11/16 11:15:44;;;;;;;9.88;1.50;;;;;;;9.91;100.00;99925.78;5061575;28;20123;-88
2022/11/16 11:18:24;;;;;;;6.40;1.10;;;;;;;9.87;100.00;99922.06;5058717;28;20074;-92
2022/11/16 11:21:05;;;;;;;11.02;1.20;;;;;;;9.79;100.00;99926.94;5036255;28;20438;-91
2022/11/16 11:23:39;;;;;;;8.55;1.23;;;;;;;9.82;100.00;99929.06;5052321;28;20177;-92
2022/11/16 11:26:05;;;;;;;5.03;1.03;;;;;;;9.81;100.00;99930.13;5052991;28;20108;-91
2022/11/16 11:28:32;;;;;;;6.13;1.10;;;;;;;9.80;100.00;99928.53;5046060;28;20317;-91
2022/11/16 11:31:07;;;;;;;11.20;1.10;;;;;;;9.76;100.00;99935.50;5052445;28;20029;-91
2022/11/16 11:33:33;;;;;;;9.45;1.25;;;;;;;9.79;100.00;99921.59;5045745;28;20114;-91
2022/11/16 11:36:18;;;;;;;10.35;1.13;;;;;;;9.70;100.00;99917.84;5053038;28;20032;-92
2022/11/16 11:38:59;;;;;;;7.57;1.23;;;;;;;9.76;100.00;99913.31;5034060;28;20115;-91
2022/11/16 11:41:31;;;;;;;5.03;1.00;;;;;;;9.91;100.00;99921.25;5051229;28;20816;-92
2022/11/16 11:44:15;;;;;;;7.00;1.10;;;;;;;10.13;100.00;99915.50;5051851;28;20017;-92
2022/11/16 11:46:51;;;;;;;7.72;1.20;;;;;;;10.28;100.00;99911.94;5049977;28;20048;-92
2022/11/16 11:49:26;;;;;;;8.43;1.35;;;;;;;10.36;100.00;99910.56;5052760;28;20021;-92
2022/11/16 11:51:55;;;;;;;10.52;1.30;;;;;;;10.41;100.00;99912.44;5053300;28;20108;-93
2022/11/16 11:54:34;;;;;;;6.32;1.13;;;;;;;10.36;100.00;99910.56;5053338;28;20164;-93
2022/11/16 11:57:14;;;;;;;7.20;1.40;;;;;;;10.42;100.00;99906.00;5037240;28;20087;-94
2022/11/16 11:59:42;;;;;;;7.53;1.00;;;;;;;10.48;100.00;99890.69;5039846;28;20021;-93
2022/11/16 12:02:42;;;;;;;9.63;1.30;;;;;;;10.74;100.00;99894.75;5058131;28;20029;-93
2022/11/16 12:05:34;;;;;;;8.70;1.50;;;;;;;10.89;100.00;99887.66;5018468;28;20310;-92
2022/11/16 12:08:02;;;;;;;5.88;1.45;;;;;;;10.75;100.00;99890.19;5052671;28;20025;-93
2022/11/16 12:10:44;;;;;;;7.95;0.93;;;;;;;10.49;100.00;99885.06;5054487;28;20503;-92
2022/11/16 12:13:34;;;;;;;8.30;1.38;;;;;;;10.44;100.00;99896.59;5056157;28;20047;-92
2022/11/16 12:16:21;;;;;;;6.18;1.20;;;;;;;10.51;100.00;99880.19;5074666;28;20025;-93
2022/11/16 12:19:18;;;;;;;5.93;1.10;;;;;;;10.57;100.00;99880.97;5065449;28;20017;-92
2022/11/16 12:22:01;;;;;;;6.50;1.20;;;;;;;10.65;100.00;99875.00;5063645;28;20071;-92
2022/11/16 12:24:55;;;;;;;11.43;1.40;;;;;;;10.72;100.00;99871.97;5068177;28;20033;-93
2022/11/16 12:27:35;;;;;;;7.30;1.37;;;;;;;10.89;100.00;99866.22;5051715;28;20315;-92
2022/11/16 12:30:08;;;;;;;4.55;1.00;;;;;;;10.91;100.00;99864.06;5074568;28;20032;-93
2022/11/16 12:32:58;;;;;;;5.00;1.05;;;;;;;10.81;100.00;99858.78;5068248;28;20028;-92
2022/11/16 12:35:24;;;;;;;7.60;1.20;;;;;;;10.75;100.00;99858.84;5067662;28;20388;-94
2022/11/16 12:38:14;;;;;;;6.93;1.20;;;;;;;10.82;100.00;99849.66;5069675;28;20033;-92
2022/11/16 12:41:10;;;;;;;5.72;1.20;;;;;;;10.98;100.00;99855.66;5067873;28;20036;-90
2022/11/16 12:43:58;;;;;;;9.18;1.30;;;;;;;11.11;100.00;99844.25;5065987;28;20036;-92
2022/11/16 12:46:51;;;;;;;6.47;1.20;;;;;;;11.11;100.00;99835.44;5061356;28;20052;-92
2022/11/16 12:49:58;;;;;;;6.13;1.77;;;;;;;11.01;100.00;99837.13;5040398;28;20284;-92
2022/11/16 12:52:49;;;;;;;6.43;1.08;;;;;;;10.98;100.00;99826.19;5056238;28;20053;-92
2022/11/16 12:55:35;;;;;;;7.15;1.45;;;;;;;11.01;100.00;99831.75;5036388;28;20496;-91